Garcia Miguel — CUGT9 — position and weather

sailwx.info

Track history (hours):
 
Tides and Currents Weather Stations Pressure Air Temp Water Temp Dewpoint Dewpoint Depression Visibility Wind Speed Wind Dir Waves Ship Positions

Garcia Miguel

Last reported at 2017-Jan-18 16:09 UTC. Time now 2017-Jan-20 05:50 UTC.
Position N 37°57' W 009°28'.

Length 20 m.

Type: Fishing. MMSI: 263500286.

Date/timePositionNaut miles runAvg speedWind from/ knotsBaromVisibWave heightAir tempDewpointWater temp
2017-Jan-18 16:09N 37°57' W 009°28'5 7.7
2017-Jan-18 15:33N 37°57' W 009°22'7 7.0
2017-Jan-18 14:33N 37°56' W 009°14'6 6.2
2017-Jan-18 13:33N 37°50' W 009°12'5 4.5
2017-Jan-18 12:34N 37°45' W 009°13'5 5.4
2017-Jan-18 11:33N 37°44' W 009°20'4 1.8
2017-Jan-18 09:28N 37°48' W 009°21'4 3.9
2017-Jan-18 08:33N 37°50' W 009°17'6 5.7
2017-Jan-18 07:32N 37°55' W 009°19'6 5.7
2017-Jan-18 06:33N 38°01' W 009°20'2 2.1
2017-Jan-18 05:33N 37°59' W 009°22'1 1.1
2017-Jan-18 04:33N 37°60' W 009°20'1 1.2
2017-Jan-18 03:34N 38°01' W 009°19'1 1.1
2017-Jan-18 02:33N 38°02' W 009°19'1 0.7
2017-Jan-18 01:33N 38°02' W 009°18'7 6.9
2017-Jan-18 00:33N 37°55' W 009°18'5 5.4
2017-Jan-17 23:34N 37°50' W 009°19'8 3.5
2017-Jan-17 21:10N 37°42' W 009°24'5 7.4
2017-Jan-17 20:33N 37°45' W 009°19'7 7.2
2017-Jan-17 19:33N 37°51' W 009°15'7 7.5
2017-Jan-17 18:33N 37°59' W 009°14'3 2.7
2017-Jan-17 17:34N 37°56' W 009°12'6 6.3
2017-Jan-17 16:34N 37°50' W 009°11'6 5.9
2017-Jan-17 15:32N 37°44' W 009°13'6 3.0
2017-Jan-17 13:21N 37°43' W 009°21'3 3.3
2017-Jan-17 12:34N 37°45' W 009°21'3 2.6
2017-Jan-17 11:33N 37°46' W 009°18'5 4.9
2017-Jan-17 10:33N 37°50' W 009°14'7 6.7
2017-Jan-17 09:33N 37°57' W 009°16'5 4.8
2017-Jan-17 08:34N 38°01' W 009°17'3 3.3
2017-Jan-17 07:34N 38°04' W 009°16'2 1.7
2017-Jan-17 06:33N 38°04' W 009°14'1 1.1
2017-Jan-17 05:33N 38°03' W 009°15'0 0.5
2017-Jan-17 04:34N 38°04' W 009°15'1 0.7
2017-Jan-17 03:34N 38°04' W 009°15'1 0.7
2017-Jan-17 02:34N 38°05' W 009°14'5 5.3
2017-Jan-17 01:33N 37°60' W 009°14'6 6.1
2017-Jan-17 00:34N 37°54' W 009°13'7 6.9
2017-Jan-16 23:33N 37°47' W 009°15'6 6.2
2017-Jan-16 22:33N 37°42' W 009°20'3 3.4
2017-Jan-16 21:32N 37°46' W 009°21'7 7.4
2017-Jan-16 20:34N 37°52' W 009°17'7 7.3
2017-Jan-16 19:34N 37°59' W 009°16'3 3.1
2017-Jan-16 18:34N 37°57' W 009°13'2 1.8
2017-Jan-16 17:33N 37°56' W 009°11'5 4.8
2017-Jan-16 16:34N 37°52' W 009°09'2 1.6
2017-Jan-16 15:34N 37°51' W 009°10'2 2.4
2017-Jan-16 14:33N 37°48' W 009°10'3 2.6
2017-Jan-16 13:33N 37°50' W 009°13'2 2.1
2017-Jan-16 12:33N 37°52' W 009°12'5 4.9
2017-Jan-16 11:33N 37°56' W 009°16'1 1.2
2017-Jan-16 10:33N 37°57' W 009°17'2 1.5
2017-Jan-16 09:33N 37°58' W 009°18'2 1.9
2017-Jan-16 08:34N 37°57' W 009°20'5 4.9
2017-Jan-16 07:34N 37°52' W 009°19'6 6.2
2017-Jan-16 06:32N 37°46' W 009°20'1 0.6
2017-Jan-16 05:33N 37°46' W 009°20'1 0.6
2017-Jan-16 04:20N 37°47' W 009°20'0 0.4
2017-Jan-16 03:34N 37°47' W 009°20'1 0.5
2017-Jan-16 02:24N 37°48' W 009°20'1 0.7
2017-Jan-16 01:31N 37°48' W 009°19'1 0.7
2017-Jan-16 00:33N 37°49' W 009°19'1 1.0
2017-Jan-15 23:32N 37°50' W 009°19'6 5.7
2017-Jan-15 22:32N 37°56' W 009°19'4 4.0
2017-Jan-15 21:33N 37°59' W 009°16'7 7.0
2017-Jan-15 20:33N 37°52' W 009°16'4 4.1
2017-Jan-15 19:33N 37°48' W 009°13'7 7.1
2017-Jan-15 18:33N 37°55' W 009°13'7 7.3
2017-Jan-15 17:33N 38°03' W 009°13'8 7.5
2017-Jan-15 16:33N 38°10' W 009°14'6 6.5
2017-Jan-15 15:33N 38°16' W 009°10'7 7.0
2017-Jan-15 14:33N 38°23' W 009°08'4 3.7
2017-Jan-15 13:32N 38°26' W 009°07'0 0.0
2017-Jan-15 12:33N 38°26' W 009°07'0 0.0
2017-Jan-15 11:33N 38°26' W 009°07'0 0.0
2017-Jan-15 10:33N 38°26' W 009°07'0 0.0
2017-Jan-15 09:33N 38°26' W 009°07'0 0.0
2017-Jan-15 08:33N 38°26' W 009°07'0 0.0
2017-Jan-15 07:32N 38°26' W 009°07'0 0.0
2017-Jan-15 06:33N 38°26' W 009°07'6 5.8
2017-Jan-15 05:31N 38°22' W 009°12'9 7.5
2017-Jan-15 04:20N 38°18' W 009°23'  
Track history (hours):
 
Tides and Currents Weather Stations Pressure Air Temp Water Temp Dewpoint Dewpoint Depression Visibility Wind Speed Wind Dir Waves Ship Positions

Garcia Miguel

Last reported at 2017-Jan-18 16:09 UTC. Time now 2017-Jan-20 05:50 UTC.
Position N 37°57' W 009°28'.

Length 20 m.

Type: Fishing. MMSI: 263500286.

Date/timePositionNaut miles runAvg speedWind from/ knotsBaromVisibWave heightAir tempDewpointWater temp
2017-Jan-18 16:09N 37°57' W 009°28'5 7.7
2017-Jan-18 15:33N 37°57' W 009°22'7 7.0
2017-Jan-18 14:33N 37°56' W 009°14'6 6.2
2017-Jan-18 13:33N 37°50' W 009°12'5 4.5
2017-Jan-18 12:34N 37°45' W 009°13'5 5.4
2017-Jan-18 11:33N 37°44' W 009°20'4 1.8
2017-Jan-18 09:28N 37°48' W 009°21'4 3.9
2017-Jan-18 08:33N 37°50' W 009°17'6 5.7
2017-Jan-18 07:32N 37°55' W 009°19'6 5.7
2017-Jan-18 06:33N 38°01' W 009°20'2 2.1
2017-Jan-18 05:33N 37°59' W 009°22'1 1.1
2017-Jan-18 04:33N 37°60' W 009°20'1 1.2
2017-Jan-18 03:34N 38°01' W 009°19'1 1.1
2017-Jan-18 02:33N 38°02' W 009°19'1 0.7
2017-Jan-18 01:33N 38°02' W 009°18'7 6.9
2017-Jan-18 00:33N 37°55' W 009°18'5 5.4
2017-Jan-17 23:34N 37°50' W 009°19'8 3.5
2017-Jan-17 21:10N 37°42' W 009°24'5 7.4
2017-Jan-17 20:33N 37°45' W 009°19'7 7.2
2017-Jan-17 19:33N 37°51' W 009°15'7 7.5
2017-Jan-17 18:33N 37°59' W 009°14'3 2.7
2017-Jan-17 17:34N 37°56' W 009°12'6 6.3
2017-Jan-17 16:34N 37°50' W 009°11'6 5.9
2017-Jan-17 15:32N 37°44' W 009°13'6 3.0
2017-Jan-17 13:21N 37°43' W 009°21'3 3.3
2017-Jan-17 12:34N 37°45' W 009°21'3 2.6
2017-Jan-17 11:33N 37°46' W 009°18'5 4.9
2017-Jan-17 10:33N 37°50' W 009°14'7 6.7
2017-Jan-17 09:33N 37°57' W 009°16'5 4.8
2017-Jan-17 08:34N 38°01' W 009°17'3 3.3
2017-Jan-17 07:34N 38°04' W 009°16'2 1.7
2017-Jan-17 06:33N 38°04' W 009°14'1 1.1
2017-Jan-17 05:33N 38°03' W 009°15'0 0.5
2017-Jan-17 04:34N 38°04' W 009°15'1 0.7
2017-Jan-17 03:34N 38°04' W 009°15'1 0.7
2017-Jan-17 02:34N 38°05' W 009°14'5 5.3
2017-Jan-17 01:33N 37°60' W 009°14'6 6.1
2017-Jan-17 00:34N 37°54' W 009°13'7 6.9
2017-Jan-16 23:33N 37°47' W 009°15'6 6.2
2017-Jan-16 22:33N 37°42' W 009°20'3 3.4
2017-Jan-16 21:32N 37°46' W 009°21'7 7.4
2017-Jan-16 20:34N 37°52' W 009°17'7 7.3
2017-Jan-16 19:34N 37°59' W 009°16'3 3.1
2017-Jan-16 18:34N 37°57' W 009°13'2 1.8
2017-Jan-16 17:33N 37°56' W 009°11'5 4.8
2017-Jan-16 16:34N 37°52' W 009°09'2 1.6
2017-Jan-16 15:34N 37°51' W 009°10'2 2.4
2017-Jan-16 14:33N 37°48' W 009°10'3 2.6
2017-Jan-16 13:33N 37°50' W 009°13'2 2.1
2017-Jan-16 12:33N 37°52' W 009°12'5 4.9
2017-Jan-16 11:33N 37°56' W 009°16'1 1.2
2017-Jan-16 10:33N 37°57' W 009°17'2 1.5
2017-Jan-16 09:33N 37°58' W 009°18'2 1.9
2017-Jan-16 08:34N 37°57' W 009°20'5 4.9
2017-Jan-16 07:34N 37°52' W 009°19'6 6.2
2017-Jan-16 06:32N 37°46' W 009°20'1 0.6
2017-Jan-16 05:33N 37°46' W 009°20'1 0.6
2017-Jan-16 04:20N 37°47' W 009°20'0 0.4
2017-Jan-16 03:34N 37°47' W 009°20'1 0.5
2017-Jan-16 02:24N 37°48' W 009°20'1 0.7
2017-Jan-16 01:31N 37°48' W 009°19'1 0.7
2017-Jan-16 00:33N 37°49' W 009°19'1 1.0
2017-Jan-15 23:32N 37°50' W 009°19'6 5.7
2017-Jan-15 22:32N 37°56' W 009°19'4 4.0
2017-Jan-15 21:33N 37°59' W 009°16'7 7.0
2017-Jan-15 20:33N 37°52' W 009°16'4 4.1
2017-Jan-15 19:33N 37°48' W 009°13'7 7.1
2017-Jan-15 18:33N 37°55' W 009°13'7 7.3
2017-Jan-15 17:33N 38°03' W 009°13'8 7.5
2017-Jan-15 16:33N 38°10' W 009°14'6 6.5
2017-Jan-15 15:33N 38°16' W 009°10'7 7.0
2017-Jan-15 14:33N 38°23' W 009°08'4 3.7
2017-Jan-15 13:32N 38°26' W 009°07'0 0.0
2017-Jan-15 12:33N 38°26' W 009°07'0 0.0
2017-Jan-15 11:33N 38°26' W 009°07'0 0.0
2017-Jan-15 10:33N 38°26' W 009°07'0 0.0
2017-Jan-15 09:33N 38°26' W 009°07'0 0.0
2017-Jan-15 08:33N 38°26' W 009°07'0 0.0
2017-Jan-15 07:32N 38°26' W 009°07'0 0.0
2017-Jan-15 06:33N 38°26' W 009°07'6 5.8
2017-Jan-15 05:31N 38°22' W 009°12'9 7.5
2017-Jan-15 04:20N 38°18' W 009°23'  

Dump ship's entire track history